EZY42ZW LSZH-EGGW
Flight info
| Callsign | EZY42ZW |
|---|---|
| Flight time | 1h 23m |
| Altitude | 34000 |
| Route | VEBIT T10 TORPA DCT REKLA DCT RLP DCT ROTSI DCT KOTUN/N0454F380 DCT NIDUV DCT SOSUN DCT SUBIP UM733 UNDUG |
| Aircraft | A319/M-SDE3FGHIRWY/LB1 |
Departure
| Time | 2026-05-07 19:30 |
|---|---|
| Airport | Zürich Airport (LSZH) |
Arrival
| Time | 2026-05-07 20:53 |
|---|---|
| Airport | London Luton Airport (EGGW) |
| Time | Latitude | Longitude | Altitude | Speed | Heading |
|---|---|---|---|---|---|
| 2026-05-07 18:46 | 47.46073 | 8.55183 | 1395 ft | 0 kts | 64° |
| 2026-05-07 19:20 | 47.46070 | 8.55173 | 1394 ft | 2 kts | 65° |
| 2026-05-07 19:20 | 47.46063 | 8.55151 | 1405 ft | 2 kts | 66° |
| 2026-05-07 19:20 | 47.46057 | 8.55129 | 1398 ft | 2 kts | 71° |
| 2026-05-07 19:20 | 47.46052 | 8.55105 | 1399 ft | 2 kts | 78° |
| 2026-05-07 19:21 | 47.46050 | 8.55082 | 1403 ft | 2 kts | 96° |
| 2026-05-07 19:21 | 47.46055 | 8.55060 | 1398 ft | 2 kts | 150° |
| 2026-05-07 19:21 | 47.46071 | 8.55050 | 1401 ft | 2 kts | 155° |
| 2026-05-07 19:21 | 47.46081 | 8.55043 | 1394 ft | 0 kts | 155° |
| 2026-05-07 19:24 | 47.46072 | 8.55050 | 1401 ft | 4 kts | 154° |
| 2026-05-07 19:24 | 47.46029 | 8.55080 | 1394 ft | 10 kts | 155° |
| 2026-05-07 19:24 | 47.45988 | 8.55159 | 1394 ft | 10 kts | 96° |
| 2026-05-07 19:25 | 47.45983 | 8.55258 | 1396 ft | 9 kts | 96° |
| 2026-05-07 19:25 | 47.45975 | 8.55358 | 1401 ft | 11 kts | 96° |
| 2026-05-07 19:25 | 47.45967 | 8.55481 | 1399 ft | 13 kts | 96° |
| 2026-05-07 19:25 | 47.45956 | 8.55628 | 1402 ft | 16 kts | 96° |
| 2026-05-07 19:26 | 47.45945 | 8.55785 | 1404 ft | 15 kts | 96° |
| 2026-05-07 19:26 | 47.45938 | 8.55928 | 1410 ft | 12 kts | 77° |
| 2026-05-07 19:26 | 47.46007 | 8.55977 | 1406 ft | 12 kts | 1° |
| 2026-05-07 19:26 | 47.46088 | 8.55989 | 1407 ft | 12 kts | 6° |
| 2026-05-07 19:27 | 47.46173 | 8.56002 | 1406 ft | 13 kts | 6° |
| 2026-05-07 19:27 | 47.46270 | 8.55992 | 1403 ft | 15 kts | 345° |
| 2026-05-07 19:27 | 47.46338 | 8.55970 | 1403 ft | 0 kts | 347° |
| 2026-05-07 19:28 | 47.46345 | 8.55967 | 1405 ft | 4 kts | 347° |
| 2026-05-07 19:28 | 47.46419 | 8.55942 | 1401 ft | 15 kts | 347° |
| 2026-05-07 19:28 | 47.46503 | 8.55945 | 1397 ft | 7 kts | 313° |
| 2026-05-07 19:28 | 47.46528 | 8.55902 | 1401 ft | 0 kts | 317° |
| 2026-05-07 19:29 | 47.46532 | 8.55896 | 1399 ft | 7 kts | 317° |
| 2026-05-07 19:29 | 47.46766 | 8.55578 | 1398 ft | 83 kts | 317° |
| 2026-05-07 19:29 | 47.47348 | 8.54781 | 1389 ft | 143 kts | 317° |
| 2026-05-07 19:29 | 47.48198 | 8.53668 | 1634 ft | 167 kts | 321° |
| 2026-05-07 19:30 | 47.49079 | 8.52545 | 2245 ft | 170 kts | 320° |
| 2026-05-07 19:30 | 47.49982 | 8.51370 | 2795 ft | 179 kts | 325° |
| 2026-05-07 19:30 | 47.51096 | 8.50354 | 3144 ft | 198 kts | 334° |
| 2026-05-07 19:30 | 47.52341 | 8.49250 | 3526 ft | 220 kts | 320° |
| 2026-05-07 19:31 | 47.53248 | 8.47409 | 4318 ft | 225 kts | 293° |
| 2026-05-07 19:31 | 47.53535 | 8.45137 | 5150 ft | 228 kts | 267° |
| 2026-05-07 19:31 | 47.53157 | 8.42881 | 6021 ft | 227 kts | 244° |
| 2026-05-07 19:31 | 47.52429 | 8.40797 | 6893 ft | 227 kts | 240° |
| 2026-05-07 19:32 | 47.51386 | 8.39062 | 7731 ft | 229 kts | 216° |
| 2026-05-07 19:32 | 47.49853 | 8.38077 | 8137 ft | 256 kts | 194° |
| 2026-05-07 19:32 | 47.48047 | 8.37512 | 8671 ft | 272 kts | 193° |
| 2026-05-07 19:32 | 47.46173 | 8.36918 | 9553 ft | 276 kts | 195° |
| 2026-05-07 19:33 | 47.44441 | 8.35737 | 10382 ft | 278 kts | 217° |
| 2026-05-07 19:33 | 47.43115 | 8.33542 | 10680 ft | 301 kts | 243° |
| 2026-05-07 19:33 | 47.42436 | 8.30489 | 10929 ft | 325 kts | 255° |
| 2026-05-07 19:33 | 47.41869 | 8.27157 | 11324 ft | 340 kts | 256° |
| 2026-05-07 19:34 | 47.41293 | 8.23737 | 12014 ft | 346 kts | 255° |
| 2026-05-07 19:34 | 47.40701 | 8.20267 | 12751 ft | 350 kts | 255° |
| 2026-05-07 19:34 | 47.40092 | 8.16769 | 13490 ft | 354 kts | 255° |
| 2026-05-07 19:34 | 47.39476 | 8.13233 | 14176 ft | 358 kts | 256° |
| 2026-05-07 19:35 | 47.39273 | 8.09566 | 14798 ft | 363 kts | 274° |
| 2026-05-07 19:35 | 47.39896 | 8.05938 | 15441 ft | 369 kts | 290° |
| 2026-05-07 19:35 | 47.40861 | 8.02410 | 16099 ft | 372 kts | 290° |
| 2026-05-07 19:35 | 47.41844 | 7.98853 | 16768 ft | 375 kts | 291° |
| 2026-05-07 19:36 | 47.42837 | 7.95273 | 17430 ft | 378 kts | 291° |
| 2026-05-07 19:36 | 47.43835 | 7.91661 | 18080 ft | 382 kts | 290° |
| 2026-05-07 19:36 | 47.44829 | 7.88043 | 18662 ft | 385 kts | 290° |
| 2026-05-07 19:36 | 47.45834 | 7.84358 | 19221 ft | 388 kts | 290° |
| 2026-05-07 19:37 | 47.46844 | 7.80646 | 19785 ft | 391 kts | 290° |
| 2026-05-07 19:37 | 47.47863 | 7.76898 | 20328 ft | 394 kts | 290° |
| 2026-05-07 19:37 | 47.48888 | 7.73133 | 20869 ft | 397 kts | 290° |
| 2026-05-07 19:37 | 47.49922 | 7.69334 | 21385 ft | 399 kts | 290° |
| 2026-05-07 19:38 | 47.50962 | 7.65504 | 21896 ft | 402 kts | 290° |
| 2026-05-07 19:38 | 47.52003 | 7.61651 | 22390 ft | 405 kts | 290° |
| 2026-05-07 19:38 | 47.53049 | 7.57772 | 22869 ft | 408 kts | 290° |
| 2026-05-07 19:38 | 47.54103 | 7.53860 | 23354 ft | 410 kts | 290° |
| 2026-05-07 19:39 | 47.55163 | 7.49929 | 23808 ft | 413 kts | 290° |
| 2026-05-07 19:39 | 47.56235 | 7.45954 | 24230 ft | 415 kts | 290° |
| 2026-05-07 19:39 | 47.57310 | 7.41956 | 24614 ft | 417 kts | 290° |
| 2026-05-07 19:39 | 47.58370 | 7.38000 | 25017 ft | 419 kts | 290° |
| 2026-05-07 19:40 | 47.59445 | 7.33975 | 25419 ft | 421 kts | 290° |
| 2026-05-07 19:40 | 47.60527 | 7.29929 | 25819 ft | 423 kts | 290° |
| 2026-05-07 19:40 | 47.61616 | 7.25864 | 26214 ft | 425 kts | 290° |
| 2026-05-07 19:40 | 47.62703 | 7.21789 | 26589 ft | 427 kts | 290° |
| 2026-05-07 19:41 | 47.63794 | 7.17686 | 26958 ft | 428 kts | 290° |
| 2026-05-07 19:41 | 47.64887 | 7.13566 | 27320 ft | 430 kts | 290° |
| 2026-05-07 19:41 | 47.65983 | 7.09427 | 27691 ft | 432 kts | 290° |
| 2026-05-07 19:41 | 47.67077 | 7.05278 | 28048 ft | 433 kts | 290° |
| 2026-05-07 19:42 | 47.68173 | 7.01106 | 28397 ft | 435 kts | 290° |
| 2026-05-07 19:42 | 47.69278 | 6.96906 | 28729 ft | 437 kts | 290° |
| 2026-05-07 19:42 | 47.70662 | 6.92874 | 29049 ft | 441 kts | 301° |
| 2026-05-07 19:42 | 47.72373 | 6.89147 | 29437 ft | 442 kts | 302° |
| 2026-05-07 19:43 | 47.74112 | 6.85395 | 29937 ft | 440 kts | 302° |
| 2026-05-07 19:43 | 47.75850 | 6.81656 | 30394 ft | 438 kts | 302° |
| 2026-05-07 19:43 | 47.77577 | 6.77934 | 30803 ft | 437 kts | 302° |
| 2026-05-07 19:43 | 47.79296 | 6.74216 | 31216 ft | 435 kts | 302° |
| 2026-05-07 19:44 | 47.81010 | 6.70502 | 31592 ft | 435 kts | 302° |
| 2026-05-07 19:44 | 47.82718 | 6.66792 | 31966 ft | 435 kts | 302° |
| 2026-05-07 19:44 | 47.86139 | 6.59352 | 32070 ft | 435 kts | 302° |
| 2026-05-07 19:45 | 47.89552 | 6.51904 | 32069 ft | 435 kts | 302° |
| 2026-05-07 19:45 | 47.92953 | 6.44440 | 32064 ft | 435 kts | 302° |
| 2026-05-07 19:46 | 47.96361 | 6.36975 | 32067 ft | 435 kts | 302° |
| 2026-05-07 19:46 | 47.99769 | 6.29491 | 32066 ft | 436 kts | 302° |
| 2026-05-07 19:47 | 48.03168 | 6.22003 | 32062 ft | 436 kts | 301° |
| 2026-05-07 19:47 | 48.06561 | 6.14493 | 32076 ft | 436 kts | 302° |
| 2026-05-07 19:48 | 48.09938 | 6.07005 | 32061 ft | 437 kts | 302° |
| 2026-05-07 19:48 | 48.13332 | 5.99449 | 32061 ft | 437 kts | 302° |
| 2026-05-07 19:49 | 48.16722 | 5.91895 | 32061 ft | 437 kts | 302° |
| 2026-05-07 19:49 | 48.20111 | 5.84324 | 32061 ft | 437 kts | 301° |
| 2026-05-07 19:50 | 48.23490 | 5.76724 | 32062 ft | 437 kts | 301° |
| 2026-05-07 19:50 | 48.26861 | 5.69127 | 32063 ft | 437 kts | 301° |
| 2026-05-07 19:51 | 48.30235 | 5.61522 | 32076 ft | 437 kts | 302° |
| 2026-05-07 19:51 | 48.33619 | 5.53899 | 32066 ft | 439 kts | 301° |
| 2026-05-07 19:52 | 48.36970 | 5.46301 | 32069 ft | 439 kts | 301° |
| 2026-05-07 19:52 | 48.40332 | 5.38633 | 32069 ft | 439 kts | 301° |
| 2026-05-07 19:53 | 48.43697 | 5.30955 | 32067 ft | 439 kts | 301° |
| 2026-05-07 19:53 | 48.47064 | 5.23271 | 32070 ft | 439 kts | 301° |
| 2026-05-07 19:54 | 48.50423 | 5.15573 | 32068 ft | 439 kts | 301° |
| 2026-05-07 19:54 | 48.53747 | 5.07910 | 32058 ft | 439 kts | 301° |
| 2026-05-07 19:55 | 48.57099 | 5.00198 | 32062 ft | 440 kts | 301° |
| 2026-05-07 19:55 | 48.60452 | 4.92460 | 32055 ft | 440 kts | 301° |
| 2026-05-07 19:56 | 48.63795 | 4.84704 | 32057 ft | 440 kts | 301° |
| 2026-05-07 19:56 | 48.67126 | 4.76939 | 32070 ft | 440 kts | 301° |
| 2026-05-07 19:57 | 48.70456 | 4.69163 | 32063 ft | 440 kts | 301° |
| 2026-05-07 19:57 | 48.73780 | 4.61390 | 32061 ft | 440 kts | 300° |
| 2026-05-07 19:58 | 48.77072 | 4.53650 | 32067 ft | 440 kts | 300° |
| 2026-05-07 19:58 | 48.80388 | 4.45855 | 32057 ft | 440 kts | 300° |
| 2026-05-07 19:59 | 48.83697 | 4.38052 | 32058 ft | 440 kts | 300° |
| 2026-05-07 19:59 | 48.87015 | 4.30207 | 32055 ft | 440 kts | 300° |
| 2026-05-07 20:00 | 48.90314 | 4.22361 | 32059 ft | 440 kts | 300° |
| 2026-05-07 20:00 | 48.93591 | 4.14555 | 32063 ft | 440 kts | 300° |
| 2026-05-07 20:01 | 48.96882 | 4.06700 | 32056 ft | 440 kts | 300° |
| 2026-05-07 20:01 | 49.00175 | 3.98818 | 32064 ft | 440 kts | 300° |
| 2026-05-07 20:02 | 49.03460 | 3.90936 | 32059 ft | 441 kts | 300° |
| 2026-05-07 20:02 | 49.06742 | 3.83031 | 32067 ft | 441 kts | 300° |
| 2026-05-07 20:03 | 49.10017 | 3.75117 | 32065 ft | 441 kts | 300° |
| 2026-05-07 20:03 | 49.13284 | 3.67197 | 32066 ft | 441 kts | 300° |
| 2026-05-07 20:04 | 49.16540 | 3.59269 | 32062 ft | 441 kts | 300° |
| 2026-05-07 20:04 | 49.19768 | 3.51379 | 32068 ft | 441 kts | 300° |
| 2026-05-07 20:05 | 49.23023 | 3.43415 | 32066 ft | 441 kts | 300° |
| 2026-05-07 20:05 | 49.26272 | 3.35439 | 32075 ft | 441 kts | 300° |
| 2026-05-07 20:06 | 49.29522 | 3.27457 | 32069 ft | 442 kts | 300° |
| 2026-05-07 20:06 | 49.32770 | 3.19459 | 32068 ft | 442 kts | 300° |
| 2026-05-07 20:07 | 49.36004 | 3.11457 | 32074 ft | 442 kts | 299° |
| 2026-05-07 20:07 | 49.39217 | 3.03472 | 32067 ft | 442 kts | 299° |
| 2026-05-07 20:08 | 49.42441 | 2.95426 | 32068 ft | 442 kts | 299° |
| 2026-05-07 20:08 | 49.45659 | 2.87373 | 32069 ft | 442 kts | 299° |
| 2026-05-07 20:09 | 49.48871 | 2.79317 | 32066 ft | 442 kts | 299° |
| 2026-05-07 20:10 | 49.53698 | 2.67207 | 32069 ft | 442 kts | 299° |
| 2026-05-07 20:10 | 49.56899 | 2.59131 | 32067 ft | 442 kts | 299° |
| 2026-05-07 20:11 | 49.60093 | 2.51032 | 32069 ft | 442 kts | 299° |
| 2026-05-07 20:11 | 49.63261 | 2.42979 | 32073 ft | 442 kts | 299° |
| 2026-05-07 20:12 | 49.66446 | 2.34866 | 32075 ft | 442 kts | 299° |
| 2026-05-07 20:12 | 49.69631 | 2.26727 | 32073 ft | 442 kts | 298° |
| 2026-05-07 20:13 | 49.72271 | 2.19958 | 32070 ft | 443 kts | 298° |
| 2026-05-07 20:13 | 49.75453 | 2.11791 | 32072 ft | 443 kts | 298° |
| 2026-05-07 20:14 | 49.78627 | 2.03599 | 32070 ft | 443 kts | 298° |
| 2026-05-07 20:14 | 49.81785 | 1.95406 | 32067 ft | 443 kts | 298° |
| 2026-05-07 20:15 | 49.84942 | 1.87204 | 32070 ft | 443 kts | 298° |
| 2026-05-07 20:15 | 49.88098 | 1.78992 | 32076 ft | 444 kts | 298° |
| 2026-05-07 20:16 | 49.91257 | 1.70755 | 32073 ft | 444 kts | 298° |
| 2026-05-07 20:16 | 49.94416 | 1.62505 | 32070 ft | 444 kts | 298° |
| 2026-05-07 20:17 | 49.97598 | 1.54275 | 32071 ft | 445 kts | 302° |
| 2026-05-07 20:17 | 50.01823 | 1.47211 | 32074 ft | 450 kts | 316° |
| 2026-05-07 20:18 | 50.06534 | 1.40826 | 32075 ft | 450 kts | 316° |
| 2026-05-07 20:18 | 50.11259 | 1.34411 | 32073 ft | 451 kts | 316° |
| 2026-05-07 20:19 | 50.15975 | 1.27951 | 32070 ft | 451 kts | 316° |
| 2026-05-07 20:19 | 50.20652 | 1.21529 | 32071 ft | 451 kts | 316° |
| 2026-05-07 20:20 | 50.25367 | 1.15056 | 32073 ft | 451 kts | 316° |
| 2026-05-07 20:20 | 50.30077 | 1.08590 | 32063 ft | 450 kts | 316° |
| 2026-05-07 20:20 | 50.32432 | 1.05337 | 31620 ft | 451 kts | 316° |
| 2026-05-07 20:21 | 50.34784 | 1.02085 | 31111 ft | 452 kts | 316° |
| 2026-05-07 20:21 | 50.37144 | 0.98819 | 30609 ft | 453 kts | 316° |
| 2026-05-07 20:21 | 50.39507 | 0.95544 | 30114 ft | 454 kts | 316° |
| 2026-05-07 20:21 | 50.41874 | 0.92251 | 29556 ft | 456 kts | 316° |
| 2026-05-07 20:22 | 50.44247 | 0.88939 | 28987 ft | 457 kts | 316° |
| 2026-05-07 20:22 | 50.46639 | 0.85646 | 28431 ft | 459 kts | 317° |
| 2026-05-07 20:22 | 50.49073 | 0.82394 | 27885 ft | 460 kts | 317° |
| 2026-05-07 20:22 | 50.51526 | 0.79169 | 27354 ft | 461 kts | 318° |
| 2026-05-07 20:23 | 50.54002 | 0.75935 | 26832 ft | 462 kts | 318° |
| 2026-05-07 20:23 | 50.56475 | 0.72696 | 26313 ft | 463 kts | 318° |
| 2026-05-07 20:23 | 50.58941 | 0.69443 | 25800 ft | 461 kts | 317° |
| 2026-05-07 20:23 | 50.61385 | 0.66197 | 25311 ft | 458 kts | 317° |
| 2026-05-07 20:24 | 50.63811 | 0.62963 | 24826 ft | 455 kts | 317° |
| 2026-05-07 20:24 | 50.66212 | 0.59748 | 24352 ft | 451 kts | 317° |
| 2026-05-07 20:24 | 50.68563 | 0.56587 | 23885 ft | 448 kts | 317° |
| 2026-05-07 20:24 | 50.70955 | 0.53365 | 23371 ft | 445 kts | 317° |
| 2026-05-07 20:25 | 50.73270 | 0.50243 | 22825 ft | 442 kts | 317° |
| 2026-05-07 20:25 | 50.75603 | 0.47091 | 22287 ft | 439 kts | 317° |
| 2026-05-07 20:25 | 50.77920 | 0.43957 | 22049 ft | 438 kts | 317° |
| 2026-05-07 20:25 | 50.80229 | 0.40838 | 22085 ft | 438 kts | 317° |
| 2026-05-07 20:26 | 50.82551 | 0.37704 | 22076 ft | 438 kts | 317° |
| 2026-05-07 20:26 | 50.84868 | 0.34575 | 22058 ft | 438 kts | 317° |
| 2026-05-07 20:26 | 50.87186 | 0.31435 | 22040 ft | 438 kts | 317° |
| 2026-05-07 20:26 | 50.89502 | 0.28289 | 22025 ft | 438 kts | 317° |
| 2026-05-07 20:27 | 50.91815 | 0.25148 | 22011 ft | 438 kts | 317° |
| 2026-05-07 20:27 | 50.94131 | 0.22006 | 22000 ft | 438 kts | 317° |
| 2026-05-07 20:27 | 50.96448 | 0.18851 | 21992 ft | 438 kts | 317° |
| 2026-05-07 20:27 | 50.98758 | 0.15698 | 21987 ft | 438 kts | 317° |
| 2026-05-07 20:28 | 51.01071 | 0.12538 | 21985 ft | 438 kts | 317° |
| 2026-05-07 20:28 | 51.03520 | 0.09645 | 21986 ft | 440 kts | 323° |
| 2026-05-07 20:28 | 51.06031 | 0.06872 | 21986 ft | 440 kts | 323° |
| 2026-05-07 20:28 | 51.08522 | 0.04119 | 21991 ft | 440 kts | 323° |
| 2026-05-07 20:29 | 51.11037 | 0.01338 | 21997 ft | 440 kts | 323° |
| 2026-05-07 20:29 | 51.13546 | -0.01440 | 22094 ft | 440 kts | 323° |
| 2026-05-07 20:29 | 51.16063 | -0.04234 | 22082 ft | 441 kts | 323° |
| 2026-05-07 20:29 | 51.18581 | -0.07036 | 21950 ft | 441 kts | 323° |
| 2026-05-07 20:30 | 51.21107 | -0.09848 | 20803 ft | 445 kts | 323° |
| 2026-05-07 20:30 | 51.23604 | -0.12636 | 20404 ft | 434 kts | 323° |
| 2026-05-07 20:30 | 51.26064 | -0.15384 | 19949 ft | 429 kts | 323° |
| 2026-05-07 20:30 | 51.28501 | -0.18106 | 19453 ft | 425 kts | 323° |
| 2026-05-07 20:31 | 51.30922 | -0.20808 | 18968 ft | 422 kts | 323° |
| 2026-05-07 20:31 | 51.33322 | -0.23491 | 18490 ft | 419 kts | 323° |
| 2026-05-07 20:31 | 51.35700 | -0.26157 | 17981 ft | 417 kts | 323° |
| 2026-05-07 20:31 | 51.38092 | -0.28758 | 17432 ft | 415 kts | 328° |
| 2026-05-07 20:32 | 51.40722 | -0.30654 | 16899 ft | 415 kts | 341° |
| 2026-05-07 20:32 | 51.43542 | -0.31568 | 16381 ft | 414 kts | 354° |
| 2026-05-07 20:32 | 51.46416 | -0.31453 | 16090 ft | 415 kts | 7° |
| 2026-05-07 20:32 | 51.49212 | -0.30335 | 16074 ft | 416 kts | 20° |
| 2026-05-07 20:33 | 51.51855 | -0.28435 | 16087 ft | 417 kts | 25° |
| 2026-05-07 20:33 | 51.54475 | -0.26444 | 15952 ft | 414 kts | 25° |
| 2026-05-07 20:33 | 51.57069 | -0.24465 | 15369 ft | 411 kts | 25° |
| 2026-05-07 20:33 | 51.59617 | -0.22514 | 15107 ft | 399 kts | 25° |
| 2026-05-07 20:34 | 51.62066 | -0.20634 | 14988 ft | 384 kts | 25° |
| 2026-05-07 20:34 | 51.64425 | -0.18815 | 14846 ft | 369 kts | 25° |
| 2026-05-07 20:34 | 51.66708 | -0.17053 | 14735 ft | 356 kts | 25° |
| 2026-05-07 20:34 | 51.68877 | -0.15380 | 14627 ft | 344 kts | 25° |
| 2026-05-07 20:35 | 51.71006 | -0.13739 | 14487 ft | 334 kts | 25° |
| 2026-05-07 20:35 | 51.73067 | -0.12147 | 14365 ft | 324 kts | 25° |
| 2026-05-07 20:35 | 51.75021 | -0.10294 | 14117 ft | 320 kts | 37° |
| 2026-05-07 20:35 | 51.76628 | -0.07911 | 13882 ft | 318 kts | 47° |
| 2026-05-07 20:36 | 51.78154 | -0.05325 | 13643 ft | 316 kts | 47° |
| 2026-05-07 20:36 | 51.79673 | -0.02771 | 13371 ft | 315 kts | 46° |
| 2026-05-07 20:36 | 51.81190 | -0.00229 | 13106 ft | 313 kts | 47° |
| 2026-05-07 20:36 | 51.82701 | 0.02304 | 12858 ft | 312 kts | 47° |
| 2026-05-07 20:37 | 51.84204 | 0.04827 | 12596 ft | 311 kts | 47° |
| 2026-05-07 20:37 | 51.85699 | 0.07341 | 12338 ft | 309 kts | 47° |
| 2026-05-07 20:37 | 51.87182 | 0.09848 | 12082 ft | 308 kts | 47° |
| 2026-05-07 20:37 | 51.88658 | 0.12344 | 11825 ft | 306 kts | 47° |
| 2026-05-07 20:38 | 51.90132 | 0.14836 | 11570 ft | 307 kts | 46° |
| 2026-05-07 20:38 | 51.91949 | 0.17031 | 11324 ft | 350 kts | 25° |
| 2026-05-07 20:38 | 51.94385 | 0.18114 | 11040 ft | 373 kts | 4° |
| 2026-05-07 20:38 | 51.96962 | 0.17814 | 10373 ft | 371 kts | 342° |
| 2026-05-07 20:39 | 51.99201 | 0.16023 | 10189 ft | 351 kts | 321° |
| 2026-05-07 20:39 | 52.00788 | 0.13179 | 9924 ft | 334 kts | 298° |
| 2026-05-07 20:39 | 52.01767 | 0.09840 | 9660 ft | 322 kts | 291° |
| 2026-05-07 20:39 | 52.02626 | 0.06547 | 9384 ft | 312 kts | 291° |
| 2026-05-07 20:40 | 52.03456 | 0.03333 | 9001 ft | 306 kts | 291° |
| 2026-05-07 20:40 | 52.04273 | 0.00175 | 8674 ft | 299 kts | 289° |
| 2026-05-07 20:40 | 52.04570 | -0.03070 | 8407 ft | 288 kts | 264° |
| 2026-05-07 20:40 | 52.04118 | -0.06175 | 8153 ft | 279 kts | 252° |
| 2026-05-07 20:41 | 52.03549 | -0.09094 | 7899 ft | 272 kts | 251° |
| 2026-05-07 20:41 | 52.02964 | -0.12008 | 7647 ft | 271 kts | 251° |
| 2026-05-07 20:41 | 52.02375 | -0.14909 | 7396 ft | 270 kts | 251° |
| 2026-05-07 20:41 | 52.01780 | -0.17812 | 7143 ft | 271 kts | 251° |
| 2026-05-07 20:42 | 52.01184 | -0.20707 | 7005 ft | 270 kts | 251° |
| 2026-05-07 20:42 | 52.00590 | -0.23594 | 7004 ft | 270 kts | 251° |
| 2026-05-07 20:42 | 51.99994 | -0.26485 | 7006 ft | 270 kts | 251° |
| 2026-05-07 20:42 | 51.99397 | -0.29374 | 7006 ft | 270 kts | 251° |
| 2026-05-07 20:43 | 51.98799 | -0.32264 | 7008 ft | 270 kts | 251° |
| 2026-05-07 20:43 | 51.98130 | -0.35114 | 7008 ft | 271 kts | 244° |
| 2026-05-07 20:43 | 51.97255 | -0.37817 | 6989 ft | 271 kts | 241° |
| 2026-05-07 20:43 | 51.96351 | -0.40502 | 6562 ft | 270 kts | 241° |
| 2026-05-07 20:44 | 51.95459 | -0.43141 | 6051 ft | 267 kts | 241° |
| 2026-05-07 20:44 | 51.94576 | -0.45779 | 5519 ft | 265 kts | 241° |
| 2026-05-07 20:44 | 51.93710 | -0.48399 | 5082 ft | 261 kts | 241° |
| 2026-05-07 20:44 | 51.92856 | -0.50999 | 4998 ft | 262 kts | 241° |
| 2026-05-07 20:45 | 51.92005 | -0.53591 | 5002 ft | 254 kts | 241° |
| 2026-05-07 20:45 | 51.91210 | -0.56030 | 5004 ft | 236 kts | 240° |
| 2026-05-07 20:45 | 51.90465 | -0.58323 | 5007 ft | 231 kts | 241° |
| 2026-05-07 20:45 | 51.89726 | -0.60617 | 4857 ft | 230 kts | 241° |
| 2026-05-07 20:46 | 51.88981 | -0.62911 | 4494 ft | 230 kts | 241° |
| 2026-05-07 20:46 | 51.88241 | -0.65209 | 4115 ft | 231 kts | 242° |
| 2026-05-07 20:46 | 51.87493 | -0.67512 | 3787 ft | 230 kts | 241° |
| 2026-05-07 20:46 | 51.86757 | -0.69777 | 3530 ft | 225 kts | 240° |
| 2026-05-07 20:47 | 51.85993 | -0.71955 | 3264 ft | 220 kts | 229° |
| 2026-05-07 20:47 | 51.84766 | -0.73285 | 3054 ft | 210 kts | 194° |
| 2026-05-07 20:47 | 51.83373 | -0.73165 | 2990 ft | 198 kts | 157° |
| 2026-05-07 20:47 | 51.82395 | -0.71747 | 2993 ft | 190 kts | 121° |
| 2026-05-07 20:48 | 51.81882 | -0.69807 | 3002 ft | 186 kts | 112° |
| 2026-05-07 20:48 | 51.81601 | -0.67830 | 2970 ft | 180 kts | 85° |
| 2026-05-07 20:48 | 51.82146 | -0.66057 | 2787 ft | 178 kts | 53° |
| 2026-05-07 20:48 | 51.82734 | -0.64342 | 2492 ft | 173 kts | 82° |
| 2026-05-07 20:49 | 51.82965 | -0.62457 | 2283 ft | 170 kts | 77° |
| 2026-05-07 20:49 | 51.83305 | -0.60618 | 2055 ft | 170 kts | 77° |
| 2026-05-07 20:49 | 51.83636 | -0.58785 | 1997 ft | 170 kts | 77° |
| 2026-05-07 20:49 | 51.83958 | -0.56968 | 2000 ft | 171 kts | 77° |
| 2026-05-07 20:50 | 51.84284 | -0.55114 | 2002 ft | 171 kts | 78° |
| 2026-05-07 20:50 | 51.84607 | -0.53270 | 2005 ft | 171 kts | 77° |
| 2026-05-07 20:50 | 51.84932 | -0.51418 | 2012 ft | 171 kts | 78° |
| 2026-05-07 20:50 | 51.85252 | -0.49578 | 1933 ft | 169 kts | 78° |
| 2026-05-07 20:51 | 51.85571 | -0.47744 | 1773 ft | 169 kts | 77° |
| 2026-05-07 20:51 | 51.85887 | -0.45929 | 1550 ft | 167 kts | 78° |
| 2026-05-07 20:51 | 51.86201 | -0.44124 | 1312 ft | 166 kts | 77° |
| 2026-05-07 20:51 | 51.86512 | -0.42332 | 1085 ft | 165 kts | 76° |
| 2026-05-07 20:52 | 51.86806 | -0.40645 | 860 ft | 146 kts | 77° |
| 2026-05-07 20:52 | 51.87068 | -0.39144 | 638 ft | 134 kts | 77° |
| 2026-05-07 20:52 | 51.87316 | -0.37727 | 525 ft | 127 kts | 77° |
| 2026-05-07 20:52 | 51.87511 | -0.36558 | 525 ft | 84 kts | 75° |
| 2026-05-07 20:53 | 51.87605 | -0.36023 | 516 ft | 24 kts | 74° |
| 2026-05-07 20:53 | 51.87659 | -0.35917 | 516 ft | 11 kts | 358° |
| 2026-05-07 20:53 | 51.87737 | -0.35951 | 516 ft | 12 kts | 343° |
| 2026-05-07 20:53 | 51.87782 | -0.36042 | 517 ft | 9 kts | 260° |
| 2026-05-07 20:54 | 51.87771 | -0.36143 | 518 ft | 9 kts | 262° |
| 2026-05-07 20:54 | 51.87759 | -0.36250 | 518 ft | 10 kts | 254° |
| 2026-05-07 20:54 | 51.87727 | -0.36387 | 519 ft | 16 kts | 253° |
| 2026-05-07 20:54 | 51.87695 | -0.36591 | 521 ft | 19 kts | 253° |
| 2026-05-07 20:55 | 51.87660 | -0.36790 | 524 ft | 14 kts | 254° |
| 2026-05-07 20:55 | 51.87636 | -0.36933 | 526 ft | 13 kts | 254° |
| 2026-05-07 20:55 | 51.87607 | -0.37101 | 522 ft | 16 kts | 254° |
| 2026-05-07 20:55 | 51.87575 | -0.37283 | 522 ft | 16 kts | 266° |
| 2026-05-07 20:56 | 51.87598 | -0.37419 | 522 ft | 10 kts | 308° |
| 2026-05-07 20:56 | 51.87668 | -0.37500 | 521 ft | 16 kts | 327° |
| 2026-05-07 20:56 | 51.87724 | -0.37662 | 520 ft | 17 kts | 292° |
| 2026-05-07 20:56 | 51.87770 | -0.37812 | 523 ft | 17 kts | 295° |
| 2026-05-07 20:57 | 51.87822 | -0.37959 | 523 ft | 12 kts | 316° |
| 2026-05-07 20:57 | 51.87897 | -0.38015 | 523 ft | 12 kts | 353° |
| 2026-05-07 20:57 | 51.87979 | -0.37980 | 523 ft | 13 kts | 30° |
| 2026-05-07 20:57 | 51.88045 | -0.37901 | 523 ft | 7 kts | 37° |
| 2026-05-07 20:58 | 51.88070 | -0.37844 | 523 ft | 6 kts | 79° |
| 2026-05-07 20:58 | 51.88060 | -0.37803 | 523 ft | 6 kts | 126° |
| 2026-05-07 20:58 | 51.88052 | -0.37788 | 523 ft | 2 kts | 128° |
| 2026-05-07 20:58 | 51.88050 | -0.37782 | 523 ft | 0 kts | 126° |
| 2026-05-07 20:59 | 51.87320 | -0.37698 | 522 ft | 0 kts | 77° |